createdAt,value
2019-01-25T00:06:09.002Z,9.77
2019-01-25T00:16:13.961Z,9.00
2019-01-25T00:26:18.496Z,9.20
2019-01-25T00:36:23.149Z,7.63
2019-01-25T00:46:27.840Z,6.80
2019-01-25T00:56:32.458Z,6.27
2019-01-25T01:06:36.916Z,6.43
2019-01-25T01:16:41.343Z,5.40
2019-01-25T01:26:45.820Z,5.37
2019-01-25T01:36:50.697Z,5.13
2019-01-25T01:46:55.075Z,4.93
2019-01-25T01:56:59.677Z,4.50
2019-01-25T02:07:04.177Z,3.63
2019-01-25T02:17:08.570Z,3.53
2019-01-25T02:27:13.027Z,3.80
2019-01-25T02:37:17.600Z,3.50
2019-01-25T02:47:22.174Z,3.53
2019-01-25T02:57:26.506Z,3.27
2019-01-25T03:07:30.898Z,3.20
2019-01-25T03:17:35.198Z,2.70
2019-01-25T03:27:39.834Z,3.00
2019-01-25T03:37:44.235Z,2.70
2019-01-25T03:47:48.593Z,2.43
2019-01-25T03:57:54.173Z,2.33
2019-01-25T04:07:58.591Z,2.50
2019-01-25T04:18:03.119Z,2.00
2019-01-25T04:28:07.578Z,2.10
2019-01-25T04:38:12.253Z,1.93
2019-01-25T04:48:16.830Z,2.23
2019-01-25T04:58:21.676Z,1.70
2019-01-25T05:08:26.053Z,1.77
2019-01-25T05:18:30.627Z,1.80
2019-01-25T05:28:35.144Z,1.97
2019-01-25T05:38:39.495Z,1.70
2019-01-25T05:48:44.168Z,1.80
2019-01-25T05:58:48.550Z,4.30
2019-01-25T06:08:53.161Z,18.10
2019-01-25T06:18:57.636Z,21.20
2019-01-25T06:29:01.953Z,28.43
2019-01-25T06:39:09.367Z,23.97
2019-01-25T06:49:13.814Z,21.57
2019-01-25T06:59:19.633Z,19.77
2019-01-25T07:09:24.118Z,19.27
2019-01-25T07:19:28.383Z,29.47
2019-01-25T07:29:32.944Z,31.27
2019-01-25T07:39:37.487Z,27.70
2019-01-25T07:49:42.026Z,24.97
2019-01-25T07:59:46.452Z,23.10
2019-01-25T08:09:51.387Z,20.23
2019-01-25T08:19:56.255Z,18.90
2019-01-25T08:30:00.980Z,17.80
2019-01-25T08:40:09.215Z,17.03
2019-01-25T08:50:22.261Z,16.67
2019-01-25T09:00:27.006Z,15.50
2019-01-25T09:10:31.416Z,14.80
2019-01-25T09:20:35.991Z,14.00
2019-01-25T09:30:40.271Z,13.13
2019-01-25T09:40:44.925Z,13.23
2019-01-25T09:50:52.950Z,11.53
2019-01-25T10:01:00.335Z,11.87
2019-01-25T10:11:05.006Z,11.77
2019-01-25T10:21:09.676Z,11.13
2019-01-25T10:31:13.977Z,11.00
2019-01-25T10:41:18.350Z,10.27
2019-01-25T10:51:22.861Z,9.90
2019-01-25T11:01:27.627Z,8.80
2019-01-25T11:11:31.886Z,10.27
2019-01-25T11:21:37.617Z,10.70
2019-01-25T11:31:42.264Z,11.70
2019-01-25T11:41:46.734Z,14.70
2019-01-25T11:51:51.105Z,14.63
2019-01-25T12:01:55.644Z,13.37
2019-01-25T12:12:00.243Z,13.27
2019-01-25T12:22:04.606Z,11.77
2019-01-25T12:32:08.911Z,11.17
2019-01-25T12:42:13.574Z,10.87
2019-01-25T12:52:18.244Z,23.37
2019-01-25T13:02:23.100Z,20.87
2019-01-25T13:12:27.668Z,18.93
2019-01-25T13:22:32.664Z,18.83
2019-01-25T13:32:37.312Z,18.30
2019-01-25T13:42:42.078Z,17.33
2019-01-25T13:52:46.659Z,16.47
2019-01-25T14:02:51.213Z,20.23
2019-01-25T14:12:55.699Z,19.47
2019-01-25T14:23:00.375Z,19.20
2019-01-25T14:33:05.306Z,18.93
2019-01-25T14:43:09.920Z,18.80
2019-01-25T14:53:14.321Z,18.50
2019-01-25T15:03:18.859Z,19.37
2019-01-25T15:13:23.731Z,17.90
2019-01-25T15:23:28.308Z,19.27
2019-01-25T15:33:33.004Z,18.57
2019-01-25T15:43:37.551Z,19.33
2019-01-25T15:53:53.146Z,19.63
2019-01-25T16:04:08.931Z,19.77
2019-01-25T16:14:18.080Z,20.73
2019-01-25T16:24:22.230Z,21.13
2019-01-25T16:34:27.748Z,22.00
2019-01-25T16:44:32.179Z,22.27
2019-01-25T16:54:36.447Z,20.57
2019-01-25T17:04:40.918Z,22.00
2019-01-25T17:14:45.345Z,19.00
2019-01-25T17:24:50.191Z,17.93
2019-01-25T17:34:54.555Z,16.73
2019-01-25T17:44:59.012Z,18.73
2019-01-25T17:55:03.901Z,20.33
2019-01-25T18:05:08.777Z,21.20
2019-01-25T18:15:15.702Z,19.93
2019-01-25T18:25:41.395Z,21.37
2019-01-25T18:35:46.039Z,21.63
2019-01-25T18:45:50.725Z,21.57
2019-01-25T18:55:55.231Z,20.27
2019-01-25T19:06:01.838Z,24.73
2019-01-25T19:16:06.422Z,28.03
2019-01-25T19:26:11.181Z,31.03
2019-01-25T19:36:15.644Z,30.00
2019-01-25T19:47:25.548Z,30.43
2019-01-25T19:57:29.983Z,29.50
2019-01-25T20:07:34.659Z,28.30
2019-01-25T20:17:39.373Z,27.07
2019-01-25T20:27:44.260Z,23.47
2019-01-25T20:37:50.813Z,21.40
2019-01-25T20:48:20.580Z,20.47
2019-01-25T20:58:26.622Z,19.87
2019-01-25T21:08:31.105Z,19.07
2019-01-25T21:18:35.975Z,16.93
2019-01-25T21:28:40.376Z,15.13
2019-01-25T21:38:44.888Z,14.17
2019-01-25T21:48:49.341Z,13.20
2019-01-25T21:58:53.892Z,11.53
2019-01-25T22:08:58.539Z,11.60
2019-01-25T22:19:02.944Z,11.27
2019-01-25T22:29:07.485Z,10.37
2019-01-25T22:39:11.957Z,9.77
2019-01-25T22:49:16.448Z,9.53
2019-01-25T22:59:20.895Z,8.17
2019-01-25T23:09:28.550Z,7.97
2019-01-25T23:19:32.855Z,7.77
2019-01-25T23:29:37.171Z,7.67
2019-01-25T23:39:41.680Z,7.67
2019-01-25T23:49:46.265Z,7.33
2019-01-25T23:59:50.711Z,6.10
